Time;durP1;ratioP1;P1;durP2;ratioP2;P2;SDS_P1;SDS_P2;PMS_P1;PMS_P2;Temp;Humidity;BMP_temperature;BMP_pressure;BME280_temperature;BME280_humidity;BME280_pressure;Samples;Min_cycle;Max_cycle;Signal;HPM_P1;HPM_P2
2022/09/02 00:01:01;;;;;;;4.57;1.33;;;12.80;95.40;;;;;;5065665;28;20030;-61
2022/09/02 00:03:33;;;;;;;2.55;1.55;;;12.80;94.90;;;;;;5050928;28;20175;-61
2022/09/02 00:06:00;;;;;;;2.67;1.40;;;12.80;95.00;;;;;;5056084;28;20041;-61
2022/09/02 00:08:27;;;;;;;2.15;1.30;;;12.80;94.90;;;;;;5053567;28;20037;-60
2022/09/02 00:10:53;;;;;;;2.22;1.35;;;12.70;95.00;;;;;;5058195;28;20041;-61
2022/09/02 00:13:21;;;;;;;4.25;1.20;;;12.70;95.00;;;;;;5049427;28;20543;-61
2022/09/02 00:15:47;;;;;;;3.38;1.70;;;12.70;95.10;;;;;;5058380;28;20051;-61
2022/09/02 00:18:16;;;;;;;3.85;1.55;;;12.70;95.20;;;;;;5053243;28;20496;-61
2022/09/02 00:20:44;;;;;;;1.95;1.55;;;12.60;95.40;;;;;;5053423;28;20033;-61
2022/09/02 00:23:10;;;;;;;1.38;1.15;;;12.60;95.40;;;;;;5038670;28;20044;-61
2022/09/02 00:25:37;;;;;;;3.35;1.33;;;12.60;95.50;;;;;;5049451;28;20496;-61
2022/09/02 00:28:04;;;;;;;2.75;1.60;;;12.50;95.50;;;;;;5054218;28;20048;-61
2022/09/02 00:30:30;;;;;;;4.22;1.50;;;12.50;95.70;;;;;;5057458;28;20047;-61
2022/09/02 00:32:56;;;;;;;2.10;1.10;;;12.50;95.70;;;;;;5053324;28;20056;-61
2022/09/02 00:35:21;;;;;;;1.63;1.50;;;12.50;95.80;;;;;;5049049;28;20535;-61
2022/09/02 00:37:47;;;;;;;3.33;1.50;;;12.50;95.90;;;;;;5049364;28;20045;-61
2022/09/02 00:40:13;;;;;;;2.38;1.33;;;12.50;95.80;;;;;;5058450;28;20036;-61
2022/09/02 00:42:38;;;;;;;2.92;1.35;;;12.50;95.80;;;;;;5057040;28;20048;-61
2022/09/02 00:45:07;;;;;;;4.25;1.30;;;12.50;95.80;;;;;;5056215;28;20064;-61
2022/09/02 00:47:34;;;;;;;1.48;1.38;;;12.50;95.80;;;;;;5067574;28;20087;-61
2022/09/02 00:50:01;;;;;;;1.75;1.35;;;12.50;95.80;;;;;;5056603;28;20063;-59
2022/09/02 00:52:33;;;;;;;3.08;1.50;;;12.60;95.90;;;;;;5066367;28;20080;-61
2022/09/02 00:55:12;;;;;;;2.28;1.38;;;12.50;96.00;;;;;;5065364;28;20048;-61
2022/09/02 00:57:47;;;;;;;3.35;1.50;;;12.50;96.10;;;;;;5067025;28;20377;-61
2022/09/02 01:00:25;;;;;;;1.98;1.42;;;12.50;96.00;;;;;;5065186;28;20097;-61
2022/09/02 01:02:54;;;;;;;4.20;1.20;;;12.40;96.10;;;;;;5053121;28;20388;-60
2022/09/02 01:05:22;;;;;;;4.10;1.48;;;12.40;96.20;;;;;;5055417;28;20033;-61
2022/09/02 01:07:50;;;;;;;1.98;1.48;;;12.40;96.20;;;;;;5057337;28;20119;-61
2022/09/02 01:10:21;;;;;;;2.33;1.30;;;12.30;96.30;;;;;;5047940;28;20451;-61
2022/09/02 01:12:48;;;;;;;3.10;1.50;;;12.30;96.30;;;;;;5036277;28;20037;-61
2022/09/02 01:15:14;;;;;;;2.17;1.55;;;12.40;96.30;;;;;;5030330;28;20133;-61
2022/09/02 01:17:46;;;;;;;2.47;1.70;;;12.40;96.40;;;;;;5052215;28;20040;-61
2022/09/02 01:20:19;;;;;;;3.05;1.60;;;12.40;96.60;;;;;;5053331;28;20048;-61
2022/09/02 01:22:46;;;;;;;3.70;1.77;;;12.40;96.50;;;;;;5059437;28;20075;-60
2022/09/02 01:25:15;;;;;;;3.22;1.52;;;12.40;96.50;;;;;;5053618;28;20037;-60
2022/09/02 01:27:42;;;;;;;1.63;1.52;;;12.40;96.50;;;;;;5064016;28;20411;-60
2022/09/02 01:30:15;;;;;;;1.80;1.25;;;12.30;96.60;;;;;;5054054;28;20037;-59
2022/09/02 01:32:40;;;;;;;2.83;1.30;;;12.30;96.60;;;;;;5063258;28;20067;-61
2022/09/02 01:35:06;;;;;;;2.60;1.55;;;12.30;96.70;;;;;;5024112;28;20040;-60
2022/09/02 01:37:33;;;;;;;2.58;1.50;;;12.30;96.70;;;;;;5056857;28;20463;-61
2022/09/02 01:39:58;;;;;;;2.10;1.60;;;12.30;96.70;;;;;;5054247;28;20032;-61
2022/09/02 01:42:25;;;;;;;4.38;1.70;;;12.30;96.80;;;;;;5032612;28;20771;-61
2022/09/02 01:44:51;;;;;;;5.57;1.65;;;12.20;96.90;;;;;;5059304;28;20032;-61
2022/09/02 01:47:19;;;;;;;1.85;1.50;;;12.20;97.00;;;;;;5070118;28;20049;-60
2022/09/02 01:49:45;;;;;;;3.75;1.45;;;12.30;97.10;;;;;;5049259;28;20043;-60
2022/09/02 01:52:11;;;;;;;3.65;1.80;;;12.30;97.10;;;;;;5061111;28;20044;-61
2022/09/02 01:54:37;;;;;;;1.88;1.67;;;12.30;97.00;;;;;;5066810;28;20036;-60
2022/09/02 01:57:03;;;;;;;3.00;1.75;;;12.30;97.00;;;;;;5063700;28;20499;-61
2022/09/02 01:59:30;;;;;;;5.28;1.58;;;12.30;97.10;;;;;;5059066;28;20106;-61
2022/09/02 02:01:55;;;;;;;2.38;1.70;;;12.30;97.10;;;;;;5064774;28;20060;-61
2022/09/02 02:04:23;;;;;;;2.10;1.83;;;12.30;97.20;;;;;;5036790;28;20033;-61
2022/09/02 02:06:50;;;;;;;3.25;1.83;;;12.20;97.20;;;;;;5053625;28;20137;-61
2022/09/02 02:09:16;;;;;;;2.53;1.48;;;12.20;97.20;;;;;;5053079;28;20037;-61
2022/09/02 02:11:42;;;;;;;2.03;1.70;;;12.20;97.30;;;;;;5069575;28;20148;-60
2022/09/02 02:14:08;;;;;;;2.50;1.73;;;12.20;97.40;;;;;;5061357;28;20607;-60
2022/09/02 02:16:34;;;;;;;3.05;1.80;;;12.20;97.40;;;;;;5054295;28;20152;-61
2022/09/02 02:19:00;;;;;;;1.75;1.50;;;12.20;97.40;;;;;;5051374;28;20033;-60
2022/09/02 02:21:26;;;;;;;2.30;1.90;;;12.10;97.40;;;;;;5063864;28;20044;-61
2022/09/02 02:23:52;;;;;;;3.45;1.80;;;12.10;97.50;;;;;;5052183;28;20674;-61
2022/09/02 02:26:18;;;;;;;3.28;1.92;;;12.20;97.50;;;;;;5055978;28;20123;-60
2022/09/02 02:28:43;;;;;;;2.28;1.60;;;12.10;97.90;;;;;;5053359;28;20155;-60
2022/09/02 02:31:09;;;;;;;2.83;1.90;;;12.10;97.60;;;;;;5050392;28;20044;-61
2022/09/02 02:33:35;;;;;;;2.88;1.73;;;12.10;97.70;;;;;;5051283;28;20037;-60
2022/09/02 02:36:03;;;;;;;2.30;1.77;;;12.10;97.70;;;;;;5053138;28;20135;-61
2022/09/02 02:38:29;;;;;;;2.20;1.92;;;12.20;97.80;;;;;;5054233;28;20401;-61
2022/09/02 02:40:56;;;;;;;2.47;1.45;;;12.10;97.70;;;;;;5053508;28;20053;-61
2022/09/02 02:43:23;;;;;;;2.38;1.95;;;12.10;97.80;;;;;;5065361;28;20037;-61
2022/09/02 02:45:48;;;;;;;2.75;1.52;;;12.20;97.80;;;;;;5061601;28;20690;-61
2022/09/02 02:48:14;;;;;;;2.97;1.75;;;12.10;97.70;;;;;;5060817;28;20056;-60
2022/09/02 02:50:41;;;;;;;2.35;1.50;;;12.10;97.80;;;;;;5058358;28;20052;-61
2022/09/02 02:53:07;;;;;;;2.15;1.98;;;12.10;97.80;;;;;;5052614;28;20048;-61
2022/09/02 02:55:33;;;;;;;4.05;2.10;;;12.10;97.90;;;;;;5054233;28;20044;-60
2022/09/02 02:58:00;;;;;;;1.98;1.80;;;12.10;97.80;;;;;;5058917;28;20040;-61
2022/09/02 03:00:28;;;;;;;3.75;2.17;;;12.10;97.90;;;;;;5055695;28;20047;-61
2022/09/02 03:02:56;;;;;;;1.73;1.60;;;12.00;98.00;;;;;;5056098;28;20083;-61
2022/09/02 03:05:21;;;;;;;3.80;1.60;;;12.00;98.10;;;;;;5054974;28;20444;-61
2022/09/02 03:07:47;;;;;;;3.70;2.00;;;11.90;98.10;;;;;;5058765;28;20118;-61
2022/09/02 03:10:13;;;;;;;1.92;1.73;;;11.90;98.20;;;;;;5038145;28;20040;-61
2022/09/02 03:12:40;;;;;;;1.75;1.65;;;11.80;98.30;;;;;;5058741;28;20039;-61
2022/09/02 03:15:08;;;;;;;2.70;1.52;;;11.70;98.40;;;;;;5056020;28;20039;-61
2022/09/02 03:17:34;;;;;;;3.25;1.80;;;11.70;98.50;;;;;;5052913;28;20041;-61
2022/09/02 03:20:00;;;;;;;3.13;1.98;;;11.70;98.60;;;;;;5055306;28;20059;-60
2022/09/02 03:22:26;;;;;;;2.78;2.10;;;11.60;98.70;;;;;;5055701;28;20931;-61
2022/09/02 03:24:52;;;;;;;2.92;2.00;;;11.60;98.80;;;;;;5065096;28;20037;-61
2022/09/02 03:27:17;;;;;;;2.20;1.83;;;11.50;99.00;;;;;;5061089;28;20085;-61
2022/09/02 03:29:43;;;;;;;2.35;1.70;;;11.40;99.00;;;;;;5055155;28;20037;-61
2022/09/02 03:32:09;;;;;;;2.42;1.92;;;11.40;99.20;;;;;;5040773;28;20052;-61
2022/09/02 03:34:35;;;;;;;2.25;1.92;;;11.30;99.20;;;;;;5057015;28;20044;-61
2022/09/02 03:37:01;;;;;;;1.88;1.75;;;11.20;99.30;;;;;;5057794;28;20093;-61
2022/09/02 03:39:26;;;;;;;2.55;2.03;;;11.20;99.40;;;;;;5058576;28;20480;-61
2022/09/02 03:41:52;;;;;;;2.08;1.83;;;11.20;99.50;;;;;;5063542;28;20033;-61
2022/09/02 03:44:18;;;;;;;2.53;1.80;;;11.10;99.50;;;;;;5063296;28;20041;-61
2022/09/02 03:46:44;;;;;;;2.60;1.98;;;11.10;99.60;;;;;;5064403;28;20064;-61
2022/09/02 03:49:10;;;;;;;3.60;2.03;;;11.10;99.70;;;;;;5040906;28;20033;-61
2022/09/02 03:51:40;;;;;;;2.15;1.90;;;11.10;99.80;;;;;;5053725;28;20040;-61
2022/09/02 03:54:06;;;;;;;3.40;2.13;;;11.00;99.90;;;;;;5059795;28;20033;-60
2022/09/02 03:56:32;;;;;;;2.38;1.98;;;11.00;99.80;;;;;;5056916;28;20028;-60
2022/09/02 03:58:59;;;;;;;3.80;2.08;;;11.00;99.90;;;;;;5040808;28;20051;-61
2022/09/02 04:01:25;;;;;;;3.03;2.22;;;10.90;99.90;;;;;;5060712;28;20051;-61
2022/09/02 04:03:52;;;;;;;4.40;2.13;;;11.00;99.90;;;;;;5059375;28;20032;-60
2022/09/02 04:06:20;;;;;;;3.42;2.22;;;10.90;99.90;;;;;;5053021;28;20043;-60
2022/09/02 04:08:46;;;;;;;3.25;2.00;;;10.90;99.90;;;;;;5051576;28;20041;-60
2022/09/02 04:11:18;;;;;;;2.58;2.38;;;10.90;99.90;;;;;;5050761;28;20056;-61
2022/09/02 04:13:45;;;;;;;2.30;2.05;;;10.90;99.90;;;;;;5058147;28;20437;-61
2022/09/02 04:16:16;;;;;;;3.42;2.33;;;10.90;99.90;;;;;;5058061;28;20033;-60
2022/09/02 04:18:42;;;;;;;2.47;2.28;;;10.80;99.90;;;;;;5048661;28;20070;-61
2022/09/02 04:21:08;;;;;;;2.40;2.20;;;10.80;99.90;;;;;;5052530;28;20059;-60
2022/09/02 04:23:34;;;;;;;2.58;2.05;;;10.70;99.90;;;;;;5023192;28;20154;-60
2022/09/02 04:26:06;;;;;;;5.13;2.15;;;10.70;99.90;;;;;;5048835;28;20060;-60
2022/09/02 04:28:32;;;;;;;4.88;2.58;;;10.70;99.90;;;;;;5058484;28;20071;-61
2022/09/02 04:30:58;;;;;;;4.68;2.60;;;10.70;99.90;;;;;;5056051;28;20076;-61
2022/09/02 04:33:24;;;;;;;3.88;2.40;;;10.70;99.90;;;;;;5064257;28;20128;-60
2022/09/02 04:35:51;;;;;;;2.28;2.00;;;10.70;99.90;;;;;;5052616;28;20102;-61
2022/09/02 04:38:17;;;;;;;4.53;2.30;;;10.70;99.90;;;;;;5062344;28;20053;-61
2022/09/02 04:40:44;;;;;;;2.95;2.50;;;10.70;99.90;;;;;;5060145;28;20040;-61
2022/09/02 04:43:11;;;;;;;4.53;2.70;;;10.60;99.90;;;;;;5052592;28;20050;-59
2022/09/02 04:45:41;;;;;;;3.72;2.55;;;10.60;99.90;;;;;;5050380;28;20033;-61
2022/09/02 04:48:07;;;;;;;2.20;2.00;;;10.60;99.90;;;;;;5049072;28;20115;-61
2022/09/02 04:50:35;;;;;;;4.05;2.80;;;10.60;99.90;;;;;;5055956;28;20072;-60
2022/09/02 04:53:00;;;;;;;3.85;2.38;;;10.60;99.90;;;;;;5032679;28;20037;-61
2022/09/02 04:55:26;;;;;;;3.78;2.63;;;10.60;99.90;;;;;;5053338;28;20400;-61
2022/09/02 04:57:52;;;;;;;3.63;2.47;;;10.60;99.90;;;;;;5055178;28;20431;-60
2022/09/02 05:00:18;;;;;;;2.55;2.30;;;10.50;99.90;;;;;;5057268;28;20041;-61
2022/09/02 05:02:44;;;;;;;3.97;2.35;;;10.60;99.90;;;;;;5053291;28;20537;-60
2022/09/02 05:05:10;;;;;;;3.25;2.63;;;10.50;99.90;;;;;;5051528;28;20492;-61
2022/09/02 05:07:37;;;;;;;2.47;2.28;;;10.50;99.90;;;;;;5054372;28;20036;-61
2022/09/02 05:10:03;;;;;;;3.47;2.83;;;10.50;99.90;;;;;;5057054;28;20040;-58
2022/09/02 05:12:32;;;;;;;3.80;2.78;;;10.40;99.90;;;;;;5051128;28;20041;-61
2022/09/02 05:14:59;;;;;;;4.55;2.47;;;10.40;99.90;;;;;;5053773;28;20033;-60
2022/09/02 05:17:27;;;;;;;3.85;3.00;;;10.50;99.90;;;;;;5057954;28;20485;-61
2022/09/02 05:19:52;;;;;;;3.03;2.72;;;10.50;99.90;;;;;;5059708;28;20349;-61
2022/09/02 05:22:18;;;;;;;5.25;2.70;;;10.50;99.90;;;;;;5063602;28;20067;-61
2022/09/02 05:24:45;;;;;;;2.88;2.60;;;10.50;99.90;;;;;;5056398;28;20039;-61
2022/09/02 05:27:11;;;;;;;4.72;2.60;;;10.60;99.90;;;;;;5062893;28;20119;-61
2022/09/02 05:29:37;;;;;;;3.30;2.92;;;10.60;99.90;;;;;;5056679;28;20045;-60
2022/09/02 05:32:03;;;;;;;2.63;2.42;;;10.60;99.90;;;;;;5059275;28;20028;-61
2022/09/02 05:34:32;;;;;;;4.80;2.83;;;10.70;99.90;;;;;;5054324;28;20378;-61
2022/09/02 05:36:57;;;;;;;3.55;2.78;;;10.70;99.90;;;;;;5062416;28;20040;-61
2022/09/02 05:39:23;;;;;;;3.55;2.75;;;10.70;99.90;;;;;;5062472;28;20051;-60
2022/09/02 05:41:48;;;;;;;6.05;3.10;;;10.80;99.90;;;;;;5063891;28;20032;-61
2022/09/02 05:44:14;;;;;;;3.70;2.95;;;10.90;99.90;;;;;;5038240;28;20465;-61
2022/09/02 05:46:39;;;;;;;5.78;3.00;;;10.90;99.90;;;;;;5065669;28;20690;-61
2022/09/02 05:49:08;;;;;;;3.92;3.05;;;11.00;99.90;;;;;;5056058;28;21225;-60
2022/09/02 05:51:44;;;;;;;9.23;3.22;;;11.10;99.90;;;;;;5059762;28;20055;-61
2022/09/02 05:54:15;;;;;;;3.75;3.30;;;11.20;99.90;;;;;;5057852;28;20032;-61
2022/09/02 05:56:43;;;;;;;3.50;3.20;;;11.20;99.90;;;;;;5052528;28;20071;-61
2022/09/02 05:59:09;;;;;;;3.63;3.10;;;11.40;99.90;;;;;;5060393;28;20381;-60
2022/09/02 06:01:35;;;;;;;7.32;3.22;;;11.40;99.90;;;;;;5056192;28;20040;-61
2022/09/02 06:04:03;;;;;;;8.57;3.65;;;11.50;99.90;;;;;;5060855;28;20124;-61
2022/09/02 06:06:30;;;;;;;5.97;2.95;;;11.60;99.90;;;;;;5061231;28;20037;-61
2022/09/02 06:08:56;;;;;;;4.30;3.00;;;11.80;99.90;;;;;;5063987;28;20127;-61
2022/09/02 06:11:23;;;;;;;7.00;3.65;;;11.90;99.90;;;;;;5059230;28;20122;-61
2022/09/02 06:13:51;;;;;;;4.75;3.38;;;12.00;99.90;;;;;;5071889;28;20512;-61
2022/09/02 06:16:19;;;;;;;5.40;2.92;;;12.10;99.90;;;;;;5065353;28;20048;-61
2022/09/02 06:18:46;;;;;;;5.18;3.53;;;12.30;99.90;;;;;;5048230;28;20087;-61
2022/09/02 06:21:13;;;;;;;5.07;3.38;;;12.40;99.90;;;;;;5044548;28;20029;-61
2022/09/02 06:23:40;;;;;;;3.55;3.20;;;12.60;99.90;;;;;;5064905;28;20131;-61
2022/09/02 06:26:08;;;;;;;9.30;4.03;;;12.70;99.90;;;;;;5063917;28;20098;-62
2022/09/02 06:28:34;;;;;;;4.70;3.28;;;12.90;99.90;;;;;;5053176;28;20041;-60
2022/09/02 06:31:13;;;;;;;5.85;2.80;;;13.10;99.90;;;;;;5051388;28;20055;-61
2022/09/02 06:33:39;;;;;;;5.00;3.40;;;13.30;99.90;;;;;;5052627;28;20064;-61
2022/09/02 06:36:08;;;;;;;3.85;2.85;;;13.60;99.90;;;;;;5064040;28;20078;-61
2022/09/02 06:38:39;;;;;;;3.65;3.15;;;13.90;99.90;;;;;;5063172;28;20052;-61
2022/09/02 06:41:05;;;;;;;5.65;3.05;;;14.20;99.90;;;;;;5051457;28;20052;-62
2022/09/02 06:43:31;;;;;;;5.93;2.88;;;14.60;99.90;;;;;;5055052;28;20588;-61
2022/09/02 06:45:57;;;;;;;3.35;2.80;;;14.80;99.90;;;;;;5044035;28;20047;-62
2022/09/02 06:48:23;;;;;;;2.92;2.58;;;15.00;99.60;;;;;;5059282;28;20094;-63
2022/09/02 06:50:48;;;;;;;7.25;2.70;;;15.30;99.00;;;;;;5053212;28;20036;-61
2022/09/02 06:53:16;;;;;;;4.85;2.50;;;15.50;98.70;;;;;;5053462;28;20053;-61
2022/09/02 06:55:43;;;;;;;4.97;2.60;;;15.80;98.10;;;;;;5071912;28;20044;-62
2022/09/02 06:58:09;;;;;;;4.55;2.28;;;15.90;97.40;;;;;;5066607;28;20405;-62
2022/09/02 07:00:35;;;;;;;5.13;2.00;;;16.10;96.90;;;;;;5068028;28;20037;-63
2022/09/02 07:05:57;;;;;;;2.25;2.05;;;16.60;95.60;;;;;;5065713;28;20127;-61
2022/09/02 07:08:22;;;;;;;4.05;2.30;;;16.80;94.80;;;;;;5067780;28;20131;-63
2022/09/02 07:10:48;;;;;;;12.25;2.40;;;17.00;94.60;;;;;;5070547;28;20131;-62
2022/09/02 07:13:13;;;;;;;2.47;1.83;;;17.10;93.80;;;;;;5072622;28;20052;-62
2022/09/02 07:15:40;;;;;;;4.25;2.10;;;17.20;93.10;;;;;;5070715;28;20043;-63
2022/09/02 07:18:06;;;;;;;2.85;2.10;;;17.40;92.20;;;;;;5067196;28;20499;-62
2022/09/02 07:20:31;;;;;;;2.97;2.00;;;17.40;91.70;;;;;;5052086;28;20048;-62
2022/09/02 07:22:57;;;;;;;3.40;2.20;;;17.60;90.90;;;;;;5068346;28;20037;-64
2022/09/02 07:25:22;;;;;;;3.97;2.38;;;17.80;90.80;;;;;;5066219;28;20037;-62
2022/09/02 07:27:50;;;;;;;4.18;2.15;;;17.90;90.50;;;;;;5061180;28;20068;-63
2022/09/02 07:30:16;;;;;;;3.53;2.05;;;18.20;90.20;;;;;;5070573;28;20469;-63
2022/09/02 07:32:41;;;;;;;2.22;1.77;;;18.50;89.00;;;;;;5071501;28;20050;-63
2022/09/02 07:35:08;;;;;;;4.43;1.92;;;18.60;88.20;;;;;;5052116;28;20124;-63
2022/09/02 07:37:33;;;;;;;2.63;1.90;;;18.80;86.90;;;;;;5051931;28;20037;-63
2022/09/02 07:40:01;;;;;;;3.75;2.00;;;18.90;85.60;;;;;;5052804;28;20098;-63
2022/09/02 07:42:27;;;;;;;4.40;1.83;;;19.20;84.50;;;;;;5050956;28;20029;-63
2022/09/02 07:44:52;;;;;;;2.83;2.00;;;19.30;84.30;;;;;;5033070;28;20099;-63
2022/09/02 07:47:18;;;;;;;3.35;1.65;;;19.70;82.80;;;;;;5046640;28;20052;-63
2022/09/02 07:49:44;;;;;;;2.22;1.90;;;19.80;80.70;;;;;;5054275;28;20119;-63
2022/09/02 07:52:09;;;;;;;2.90;1.80;;;20.00;79.00;;;;;;5049235;28;20098;-62
2022/09/02 07:54:35;;;;;;;2.30;1.67;;;19.90;77.60;;;;;;5051590;28;20098;-63
2022/09/02 07:57:00;;;;;;;2.95;1.80;;;20.10;76.60;;;;;;5053801;28;20068;-63
2022/09/02 07:59:26;;;;;;;2.67;1.67;;;20.20;75.40;;;;;;5068873;28;20051;-63
2022/09/02 08:01:52;;;;;;;3.10;1.70;;;20.30;74.70;;;;;;5048119;28;20112;-63
2022/09/02 08:04:22;;;;;;;3.58;1.23;;;20.50;73.60;;;;;;5050637;28;20028;-64
2022/09/02 08:06:47;;;;;;;3.37;1.90;;;20.50;72.80;;;;;;5060524;28;20046;-63
2022/09/02 08:09:13;;;;;;;3.33;1.70;;;20.40;73.20;;;;;;5062595;28;20123;-63
2022/09/02 08:11:41;;;;;;;5.55;1.77;;;20.30;73.10;;;;;;5049608;28;20041;-63
2022/09/02 08:14:09;;;;;;;4.10;1.50;;;20.20;72.20;;;;;;5053805;28;20087;-63
2022/09/02 08:16:35;;;;;;;2.65;1.60;;;20.10;71.80;;;;;;5049537;28;20094;-63
2022/09/02 08:19:01;;;;;;;4.68;2.67;;;20.10;72.70;;;;;;5054061;28;20036;-64
2022/09/02 08:21:26;;;;;;;2.25;1.67;;;20.10;71.40;;;;;;5068831;28;20036;-63
2022/09/02 08:23:52;;;;;;;3.88;1.70;;;20.10;70.70;;;;;;5070254;28;20081;-63
2022/09/02 08:26:17;;;;;;;2.80;1.50;;;20.10;70.20;;;;;;5070754;28;20175;-62
2022/09/02 08:28:43;;;;;;;2.42;1.48;;;20.10;69.80;;;;;;5075547;28;20480;-63
2022/09/02 08:31:09;;;;;;;7.25;2.10;;;20.30;69.70;;;;;;5065820;28;20126;-62
2022/09/02 08:33:35;;;;;;;2.70;1.60;;;20.50;68.50;;;;;;5059725;28;20052;-62
2022/09/02 08:36:07;;;;;;;2.22;1.77;;;20.90;67.30;;;;;;5067314;28;20373;-62
2022/09/02 08:38:34;;;;;;;5.65;1.40;;;21.40;65.70;;;;;;5059242;28;20170;-64
2022/09/02 08:40:59;;;;;;;7.72;1.65;;;21.80;64.50;;;;;;5064574;28;20131;-63
2022/09/02 08:43:43;;;;;;;5.05;1.67;;;22.40;63.50;;;;;;5077130;28;20124;-62
2022/09/02 08:46:16;;;;;;;4.75;1.90;;;23.00;60.60;;;;;;5046801;28;20055;-63
2022/09/02 08:48:51;;;;;;;3.00;1.70;;;23.50;60.10;;;;;;5058919;28;20140;-64
2022/09/02 08:51:45;;;;;;;2.97;1.38;;;24.00;58.30;;;;;;5058200;28;20838;-64
2022/09/02 08:54:43;;;;;;;3.42;1.30;;;24.20;56.50;;;;;;5071589;28;20037;-64
2022/09/02 08:57:09;;;;;;;5.38;1.30;;;24.70;56.60;;;;;;5072612;28;20120;-63
2022/09/02 08:59:36;;;;;;;2.80;1.42;;;24.70;57.40;;;;;;5077420;28;20084;-64
2022/09/02 09:02:34;;;;;;;2.85;1.50;;;24.70;55.80;;;;;;5058337;28;20095;-63
2022/09/02 09:05:11;;;;;;;4.25;1.38;;;24.60;54.30;;;;;;5054089;28;20554;-62
2022/09/02 09:07:58;;;;;;;2.35;1.25;;;24.30;55.80;;;;;;5058067;28;20112;-64
2022/09/02 09:10:27;;;;;;;2.22;1.10;;;23.90;56.00;;;;;;5075066;28;20055;-64
2022/09/02 09:13:03;;;;;;;3.53;1.50;;;23.60;57.80;;;;;;5075248;28;20085;-62
2022/09/02 09:15:32;;;;;;;4.50;1.70;;;23.30;56.20;;;;;;5076421;28;20041;-63
2022/09/02 09:18:01;;;;;;;3.53;1.23;;;23.40;55.80;;;;;;5075759;28;20523;-62
2022/09/02 09:20:32;;;;;;;4.90;1.40;;;23.30;55.60;;;;;;5075305;28;20408;-63
2022/09/02 09:22:59;;;;;;;;;;;23.40;55.90;;;;;;5074062;28;20040;-64
2022/09/02 09:25:29;;;;;;;3.35;1.30;;;23.50;55.30;;;;;;5056514;28;19920;-64
2022/09/02 09:27:56;;;;;;;5.55;1.42;;;24.20;55.10;;;;;;5076722;28;20036;-63
2022/09/02 09:30:22;;;;;;;3.95;1.70;;;24.10;53.80;;;;;;5073524;28;20040;-65
2022/09/02 09:32:59;;;;;;;5.68;1.40;;;23.90;53.70;;;;;;5059580;28;20742;-63
2022/09/02 09:35:25;;;;;;;2.03;1.38;;;23.50;54.30;;;;;;5067342;28;20041;-64
2022/09/02 09:37:53;;;;;;;3.67;1.50;;;23.30;55.50;;;;;;5071303;28;20040;-65
2022/09/02 09:40:24;;;;;;;4.35;1.40;;;23.00;55.70;;;;;;5070343;28;20044;-63
2022/09/02 09:43:00;;;;;;;5.32;1.30;;;22.90;55.60;;;;;;5053783;28;20068;-64
2022/09/02 09:45:31;;;;;;;3.88;1.20;;;22.80;55.00;;;;;;5071815;28;20036;-64
2022/09/02 09:48:18;;;;;;;3.17;1.23;;;22.70;54.60;;;;;;5069343;28;20064;-63
2022/09/02 09:50:45;;;;;;;2.88;1.38;;;22.70;54.30;;;;;;5050939;28;20440;-64
2022/09/02 09:53:19;;;;;;;2.15;1.45;;;22.70;54.60;;;;;;5055763;28;20036;-63
2022/09/02 09:55:57;;;;;;;2.90;1.13;;;22.50;54.10;;;;;;5039208;28;20871;-64
2022/09/02 09:58:31;;;;;;;1.77;1.00;;;22.70;53.40;;;;;;5055204;28;20461;-63
2022/09/02 10:00:59;;;;;;;4.32;1.60;;;22.80;53.40;;;;;;5053920;28;20049;-62
2022/09/02 10:03:29;;;;;;;2.55;1.13;;;22.80;53.70;;;;;;5062364;28;20036;-63
2022/09/02 10:05:57;;;;;;;4.28;1.23;;;22.80;53.40;;;;;;5059314;28;20040;-64
2022/09/02 10:08:25;;;;;;;3.05;1.30;;;22.90;53.60;;;;;;5066911;28;20046;-63
2022/09/02 10:11:00;;;;;;;3.40;1.40;;;23.00;52.70;;;;;;5045851;28;20042;-64
2022/09/02 10:13:30;;;;;;;2.33;1.00;;;22.90;52.40;;;;;;5054090;28;20107;-63
2022/09/02 10:16:04;;;;;;;1.52;0.82;;;23.20;52.30;;;;;;5032702;28;20087;-63
2022/09/02 10:18:40;;;;;;;2.70;1.13;;;23.10;52.20;;;;;;5053876;28;20084;-64
2022/09/02 10:21:24;;;;;;;1.40;0.90;;;23.10;52.00;;;;;;5059438;28;20444;-63
2022/09/02 10:24:14;;;;;;;4.72;1.13;;;23.00;51.60;;;;;;5053355;28;20044;-64
2022/09/02 10:26:47;;;;;;;4.10;1.05;;;23.10;50.90;;;;;;5050731;28;20048;-63
2022/09/02 10:29:19;;;;;;;3.00;1.00;;;23.00;51.60;;;;;;5054499;28;20037;-63
2022/09/02 10:31:54;;;;;;;2.80;1.00;;;23.00;51.50;;;;;;5060194;28;20115;-65
2022/09/02 10:34:38;;;;;;;2.47;0.80;;;23.10;51.20;;;;;;5077744;28;20040;-64
2022/09/02 10:37:24;;;;;;;2.55;1.00;;;23.00;50.30;;;;;;5060324;28;20040;-64
2022/09/02 10:40:01;;;;;;;1.27;0.90;;;22.80;49.90;;;;;;5072351;28;20090;-63
2022/09/02 10:42:52;;;;;;;2.67;1.10;;;22.80;50.10;;;;;;5039166;28;20040;-64
2022/09/02 10:45:23;;;;;;;2.40;1.00;;;22.80;50.40;;;;;;5061207;28;20037;-63
2022/09/02 10:48:27;;;;;;;3.70;0.90;;;22.90;49.80;;;;;;5051184;28;20053;-64
2022/09/02 10:51:23;;;;;;;1.48;0.70;;;22.90;50.00;;;;;;5038496;28;20566;-63
2022/09/02 10:54:08;;;;;;;3.80;0.90;;;23.00;47.80;;;;;;5071663;28;20032;-63
2022/09/02 10:56:56;;;;;;;1.27;0.75;;;23.10;49.10;;;;;;5064664;28;20389;-62
2022/09/02 10:59:31;;;;;;;3.72;0.93;;;23.30;49.10;;;;;;5062312;28;20051;-64
2022/09/02 11:02:15;;;;;;;3.63;0.93;;;23.20;48.20;;;;;;5068270;28;20032;-66
2022/09/02 11:04:58;;;;;;;2.10;0.90;;;23.10;48.20;;;;;;5063962;28;20111;-64
2022/09/02 11:07:35;;;;;;;4.63;1.02;;;23.30;48.40;;;;;;5068310;28;20150;-64
2022/09/02 11:10:26;;;;;;;7.53;0.80;;;23.30;47.40;;;;;;5068402;28;20395;-63
2022/09/02 11:12:59;;;;;;;6.45;1.30;;;23.20;47.20;;;;;;5071130;28;20047;-62
2022/09/02 11:15:39;;;;;;;3.75;1.05;;;23.20;48.10;;;;;;5065271;28;20044;-63
2022/09/02 11:18:09;;;;;;;4.10;0.70;;;23.10;48.10;;;;;;5057306;28;20086;-64
2022/09/02 11:21:07;;;;;;;4.43;1.08;;;23.30;48.80;;;;;;5056758;28;20045;-65
2022/09/02 11:23:58;;;;;;;5.05;1.30;;;23.30;48.30;;;;;;5056744;28;20040;-65
2022/09/02 11:26:40;;;;;;;2.45;0.98;;;23.30;47.90;;;;;;5037824;28;20425;-64
2022/09/02 11:29:21;;;;;;;2.25;0.90;;;23.40;47.20;;;;;;5066005;28;20126;-64
2022/09/02 11:31:50;;;;;;;;;;;23.50;45.80;;;;;;5045570;28;20041;-63
2022/09/02 11:34:18;;;;;;;1.60;0.80;;;23.30;45.90;;;;;;5060818;28;19948;-64
2022/09/02 11:36:45;;;;;;;2.22;0.90;;;23.40;47.30;;;;;;5060988;28;20041;-64
2022/09/02 11:39:32;;;;;;;2.63;1.00;;;23.60;47.50;;;;;;5060098;28;20047;-64
2022/09/02 11:42:19;;;;;;;9.50;1.48;;;23.60;47.30;;;;;;5052729;28;20049;-62
2022/09/02 11:45:16;;;;;;;6.10;0.98;;;23.60;46.30;;;;;;5051467;28;20044;-67
2022/09/02 11:48:04;;;;;;;1.27;0.90;;;23.70;46.10;;;;;;5061895;28;20119;-65
2022/09/02 11:50:58;;;;;;;2.42;0.93;;;23.80;46.10;;;;;;5048588;28;20072;-65
2022/09/02 11:53:39;;;;;;;2.97;0.90;;;23.80;46.30;;;;;;5051374;28;20106;-64
2022/09/02 11:56:16;;;;;;;5.95;1.20;;;23.70;46.10;;;;;;5051162;28;20738;-65
2022/09/02 11:58:45;;;;;;;1.75;0.90;;;23.70;46.00;;;;;;5070132;28;20112;-63
2022/09/02 12:01:36;;;;;;;2.35;0.90;;;23.60;46.30;;;;;;5070164;28;20512;-63
2022/09/02 12:04:17;;;;;;;1.08;0.93;;;23.70;46.40;;;;;;5049638;28;20385;-66
2022/09/02 12:07:09;;;;;;;7.50;1.33;;;23.90;46.80;;;;;;5060717;28;20036;-64
2022/09/02 12:09:53;;;;;;;1.60;1.10;;;24.10;46.40;;;;;;5071443;28;20101;-64
2022/09/02 12:12:37;;;;;;;3.53;0.95;;;24.10;45.20;;;;;;5051205;28;20056;-63
2022/09/02 12:15:07;;;;;;;2.30;0.88;;;24.10;45.60;;;;;;5057893;28;20049;-64
2022/09/02 12:18:04;;;;;;;3.73;0.80;;;24.40;46.20;;;;;;5036807;28;20422;-63
2022/09/02 12:20:40;;;;;;;3.55;1.00;;;24.50;44.60;;;;;;5048281;28;20051;-67
2022/09/02 12:23:07;;;;;;;3.38;1.17;;;24.50;44.20;;;;;;5049311;28;20049;-64
2022/09/02 12:25:39;;;;;;;2.85;1.00;;;24.50;45.10;;;;;;5051844;28;20040;-64
2022/09/02 12:28:13;;;;;;;5.03;1.00;;;24.80;44.50;;;;;;5049670;28;20470;-63
2022/09/02 12:31:16;;;;;;;3.92;1.17;;;24.90;44.30;;;;;;5053170;28;20111;-64
2022/09/02 12:33:50;;;;;;;2.33;0.88;;;24.80;44.20;;;;;;5064824;28;20120;-63
2022/09/02 12:36:35;;;;;;;2.80;1.00;;;24.80;43.90;;;;;;5050010;28;20056;-64
2022/09/02 12:39:22;;;;;;;2.83;1.15;;;24.70;43.00;;;;;;5054968;28;20036;-65
2022/09/02 12:41:59;;;;;;;3.25;0.98;;;24.70;43.10;;;;;;5053115;28;20033;-64
2022/09/02 12:44:47;;;;;;;2.30;1.20;;;24.70;43.90;;;;;;5061083;28;20044;-64
2022/09/02 12:47:25;;;;;;;2.53;1.13;;;25.80;43.50;;;;;;5065865;28;20063;-64
2022/09/02 12:50:15;;;;;;;2.92;1.00;;;26.50;42.30;;;;;;5068399;28;20063;-64
2022/09/02 12:52:43;;;;;;;;;;;26.80;41.90;;;;;;5062816;28;20032;-65
2022/09/02 12:55:08;;;;;;;2.58;1.13;;;28.20;40.40;;;;;;5052357;28;19920;-64
2022/09/02 12:57:39;;;;;;;1.75;1.08;;;29.60;39.30;;;;;;5053659;28;20488;-65
2022/09/02 13:00:05;;;;;;;1.35;1.17;;;30.90;37.50;;;;;;5055165;28;20266;-64
2022/09/02 13:03:12;;;;;;;2.15;1.10;;;31.60;36.00;;;;;;5036859;28;20043;-63
2022/09/02 13:05:58;;;;;;;2.80;1.05;;;32.30;34.80;;;;;;5048289;28;20056;-64
2022/09/02 13:08:42;;;;;;;2.80;1.13;;;34.10;34.50;;;;;;5057242;28;20037;-65